Time;durP1;ratioP1;P1;durP2;ratioP2;P2;SDS_P1;SDS_P2;PMS_P1;PMS_P2;Temp;Humidity;BMP_temperature;BMP_pressure;BME280_temperature;BME280_humidity;BME280_pressure;Samples;Min_cycle;Max_cycle;Signal;HPM_P1;HPM_P2
2021/08/11 00:02:16;;;;;;;;;0.75;0.75;;;;;26.28;43.03;101796.88;5014800;28;45510;-73
2021/08/11 00:04:41;;;;;;;;;0.25;0.25;;;;;26.29;43.02;101798.56;5014795;28;45469;-73
2021/08/11 00:07:06;;;;;;;;;0.50;0.50;;;;;26.29;43.20;101795.88;5014907;28;46472;-73
2021/08/11 00:09:32;;;;;;;;;1.00;1.00;;;;;26.26;43.21;101790.91;5014479;28;45426;-73
2021/08/11 00:11:58;;;;;;;;;0.00;0.00;;;;;26.31;43.20;101797.56;5014769;28;45936;-73
2021/08/11 00:14:24;;;;;;;;;0.25;0.25;;;;;26.31;43.25;101801.03;5014726;28;45587;-73
2021/08/11 00:16:49;;;;;;;;;1.00;1.00;;;;;26.25;43.11;101802.63;5014559;28;45671;-73
2021/08/11 00:19:15;;;;;;;;;3.00;2.00;;;;;26.27;43.41;101807.75;5014512;28;45544;-73
2021/08/11 00:21:41;;;;;;;;;1.00;1.00;;;;;26.29;43.10;101809.22;5014584;28;45429;-73
2021/08/11 00:24:06;;;;;;;;;0.00;0.00;;;;;26.29;43.41;101811.06;5014436;28;45473;-73
2021/08/11 00:26:31;;;;;;;;;1.75;1.75;;;;;26.29;43.13;101808.38;5014323;28;45362;-73
2021/08/11 00:28:57;;;;;;;;;1.00;1.00;;;;;26.27;43.36;101805.91;5014240;28;45283;-73
2021/08/11 00:31:22;;;;;;;;;0.00;0.00;;;;;26.25;43.36;101807.13;5015081;28;45413;-73
2021/08/11 00:33:47;;;;;;;;;1.00;1.00;;;;;26.21;43.23;101803.16;4993014;28;45770;-73
2021/08/11 00:36:13;;;;;;;;;1.00;1.00;;;;;26.24;43.37;101808.94;5007323;28;45484;-73
2021/08/11 00:38:38;;;;;;;;;0.00;0.00;;;;;26.27;43.05;101813.09;5014188;28;45339;-73
2021/08/11 00:41:04;;;;;;;;;0.75;0.00;;;;;26.27;43.14;101811.25;5014552;28;45295;-73
2021/08/11 00:43:29;;;;;;;;;1.25;1.25;;;;;26.26;43.11;101806.91;5014853;28;45539;-73
2021/08/11 00:45:54;;;;;;;;;0.75;0.75;;;;;26.22;42.93;101797.66;5014060;28;45734;-73
2021/08/11 00:48:24;;;;;;;;;0.75;0.75;;;;;26.26;43.35;101800.75;5013549;28;45387;-74
2021/08/11 00:50:50;;;;;;;;;0.00;0.00;;;;;26.22;43.29;101794.16;5014258;28;45453;-73
2021/08/11 00:53:16;;;;;;;;;0.00;0.00;;;;;26.09;43.25;101765.47;4996025;28;45614;-73
2021/08/11 00:55:42;;;;;;;;;1.00;1.00;;;;;26.29;43.14;101803.88;5014408;28;45524;-73
2021/08/11 00:58:12;;;;;;;;;0.50;0.50;;;;;26.23;43.11;101785.94;5014221;28;45346;-73
2021/08/11 01:00:42;;;;;;;;;0.00;0.00;;;;;26.29;43.20;101795.88;5014277;28;45403;-73
2021/08/11 01:03:12;;;;;;;;;0.25;0.25;;;;;26.30;42.88;101796.72;5017081;28;45521;-73
2021/08/11 01:05:39;;;;;;;;;0.75;0.75;;;;;26.23;42.67;101775.28;5017365;28;45426;-73
2021/08/11 01:08:05;;;;;;;;;1.00;1.00;;;;;26.31;43.17;101792.22;5001251;28;45561;-73
2021/08/11 01:10:31;;;;;;;;;0.33;0.33;;;;;26.29;43.42;101787.03;5018052;28;45412;-73
2021/08/11 01:12:57;;;;;;;;;0.00;0.00;;;;;26.32;43.25;101799.19;5017225;28;45491;-73
2021/08/11 01:15:22;;;;;;;;;0.00;0.00;;;;;26.26;43.11;101793.59;5017127;28;45623;-74
2021/08/11 01:17:47;;;;;;;;;1.00;1.00;;;;;26.08;43.08;101759.31;5016709;28;45632;-73
2021/08/11 01:20:14;;;;;;;;;0.00;0.00;;;;;26.26;43.36;101793.59;5017556;28;45611;-73
2021/08/11 01:22:43;;;;;;;;;1.25;1.25;;;;;26.32;43.25;101792.00;5017412;28;45327;-73
2021/08/11 01:25:08;;;;;;;;;2.00;2.00;;;;;26.30;43.05;101796.72;5016325;28;45449;-73
2021/08/11 01:27:49;;;;;;;;;0.00;0.00;;;;;26.32;42.88;101799.19;5016834;28;45326;-73
2021/08/11 01:30:27;;;;;;;;;0.00;0.00;;;;;26.31;43.02;101810.88;5017173;28;45393;-73
2021/08/11 01:32:59;;;;;;;;;1.00;1.00;;;;;26.30;43.14;101804.72;5016546;28;45397;-73
2021/08/11 01:35:40;;;;;;;;;1.00;1.00;;;;;26.20;42.96;101791.69;5016733;28;47308;-73
2021/08/11 01:38:10;;;;;;;;;0.75;0.75;;;;;26.29;43.42;101808.38;5001061;28;45361;-73
2021/08/11 01:40:37;;;;;;;;;0.33;0.33;;;;;26.27;42.72;101802.41;5017778;28;45421;-73
2021/08/11 01:43:06;;;;;;;;;1.00;1.00;;;;;26.20;43.11;101790.84;5017056;28;45316;-72
2021/08/11 01:45:37;;;;;;;;;1.25;1.25;;;;;26.25;42.98;101802.63;5016598;28;45418;-73
2021/08/11 01:48:10;;;;;;;;;0.00;0.00;;;;;26.25;43.07;101801.78;5016029;28;45449;-73
2021/08/11 01:50:38;;;;;;;;;1.00;1.00;;;;;26.28;42.88;101806.75;5016818;28;45350;-73
2021/08/11 01:53:11;;;;;;;;;0.75;0.25;;;;;26.09;43.05;101776.97;5016872;28;45614;-73
2021/08/11 01:55:37;;;;;;;;;1.00;1.00;;;;;26.23;43.10;101795.81;5013243;28;47312;-73
2021/08/11 01:58:03;;;;;;;;;1.00;1.00;;;;;26.24;43.27;101803.63;5016577;28;45314;-73
2021/08/11 02:00:30;;;;;;;;;1.00;1.00;;;;;26.18;42.85;101789.19;5016022;28;45421;-73
2021/08/11 02:02:56;;;;;;;;;1.00;1.00;;;;;26.20;42.74;101794.34;5016496;28;45554;-73
2021/08/11 02:05:24;;;;;;;;;1.00;1.00;;;;;26.26;43.05;101796.25;5016499;28;49119;-73
2021/08/11 02:07:50;;;;;;;;;1.50;0.00;;;;;26.23;43.09;101788.63;5016664;28;47948;-73
2021/08/11 02:10:18;;;;;;;;;1.00;1.00;;;;;26.18;42.89;101778.50;5016850;28;46070;-73
2021/08/11 02:12:43;;;;;;;;;1.25;1.25;;;;;26.21;43.41;101773.81;5015279;28;45291;-73
2021/08/11 02:15:10;;;;;;;;;0.00;0.00;;;;;26.23;43.06;101785.94;5015869;28;47178;-73
2021/08/11 02:17:40;;;;;;;;;2.00;2.00;;;;;26.24;42.80;101784.09;5016140;28;45925;-73
2021/08/11 02:20:08;;;;;;;;;0.50;0.50;;;;;26.22;42.97;101778.16;5000898;28;45296;-72
2021/08/11 02:22:34;;;;;;;;;1.00;1.00;;;;;26.21;42.87;101776.47;5016838;28;45302;-72
2021/08/11 02:25:06;;;;;;;;;0.00;0.00;;;;;26.21;43.12;101777.31;5015871;28;45417;-73
2021/08/11 02:27:41;;;;;;;;;0.25;0.25;;;;;26.26;42.91;101788.25;5015871;28;45515;-72
2021/08/11 02:30:13;;;;;;;;;1.00;1.00;;;;;26.26;43.11;101795.41;5015697;28;45483;-73
2021/08/11 02:32:39;;;;;;;;;1.00;1.00;;;;;26.25;43.13;101786.59;5016127;28;45591;-73
2021/08/11 02:35:28;;;;;;;;;1.00;1.00;;;;;26.09;42.96;101749.47;5015838;28;45318;-73
2021/08/11 02:37:54;;;;;;;;;1.00;1.00;;;;;26.26;43.64;101766.91;5014652;28;45382;-73
2021/08/11 02:40:47;;;;;;;;;0.50;0.50;;;;;26.26;43.06;101772.25;5016523;28;45471;-73
2021/08/11 02:43:36;;;;;;;;;1.25;1.00;;;;;26.26;43.07;101771.41;5015938;28;45476;-73
2021/08/11 02:46:08;;;;;;;;;1.75;1.75;;;;;26.26;42.94;101774.91;5015292;28;47047;-73
2021/08/11 02:48:35;;;;;;;;;1.00;1.00;;;;;26.25;42.98;101775.09;5015484;28;45568;-73
2021/08/11 02:51:03;;;;;;;;;1.00;1.00;;;;;26.23;43.10;101767.28;5015870;28;45402;-73
2021/08/11 02:53:30;;;;;;;;;0.50;0.50;;;;;26.23;42.80;101755.81;5015817;28;45548;-73
2021/08/11 02:55:56;;;;;;;;;1.00;1.00;;;;;26.20;42.65;101746.34;5015784;28;47203;-73
2021/08/11 02:58:22;;;;;;;;;1.00;1.00;;;;;26.26;42.89;101756.25;5015746;28;45210;-73
2021/08/11 03:00:49;;;;;;;;;1.00;1.00;;;;;26.26;42.78;101756.25;5015714;28;45511;-72
2021/08/11 03:03:16;;;;;;;;;0.25;0.25;;;;;26.27;43.13;101768.56;5015931;28;45507;-73
2021/08/11 03:05:42;;;;;;;;;1.75;1.00;;;;;26.20;43.19;101753.50;5015438;28;45669;-73
2021/08/11 03:08:08;;;;;;;;;1.00;1.00;;;;;26.22;42.72;101756.81;5016047;28;45678;-73
2021/08/11 03:10:34;;;;;;;;;1.00;1.00;;;;;26.27;42.90;101754.41;5012609;28;45356;-73
2021/08/11 03:13:00;;;;;;;;;1.00;1.00;;;;;26.26;42.94;101755.41;5015273;28;45576;-73
2021/08/11 03:15:30;;;;;;;;;1.00;1.00;;;;;26.21;42.75;101752.47;5015702;28;45683;-72
2021/08/11 03:17:56;;;;;;;;;1.00;1.00;;;;;26.21;42.78;101752.47;5015709;28;45448;-73
2021/08/11 03:20:21;;;;;;;;;0.00;0.00;;;;;26.22;42.57;101756.81;5015639;28;45452;-73
2021/08/11 03:22:47;;;;;;;;;1.00;1.00;;;;;26.22;43.06;101754.97;5015342;28;45624;-72
2021/08/11 03:25:12;;;;;;;;;0.00;0.00;;;;;26.20;43.02;101758.84;5015435;28;46489;-73
2021/08/11 03:27:37;;;;;;;;;0.75;0.75;;;;;26.17;42.77;101752.03;5014895;28;45443;-73
2021/08/11 03:30:04;;;;;;;;;0.50;0.50;;;;;26.22;43.33;101762.97;5015185;28;45433;-73
2021/08/11 03:32:29;;;;;;;;;1.00;1.00;;;;;26.06;43.18;101746.16;5015474;28;45557;-73
2021/08/11 03:34:54;;;;;;;;;0.75;0.75;;;;;26.11;42.71;101750.09;5014804;28;45352;-73
2021/08/11 03:37:20;;;;;;;;;0.25;0.25;;;;;26.25;42.79;101777.78;5015749;28;45330;-73
2021/08/11 03:39:45;;;;;;;;;0.00;0.00;;;;;26.04;42.50;101742.03;5015007;28;45375;-73
2021/08/11 03:42:10;;;;;;;;;1.00;1.00;;;;;26.05;42.89;101755.16;5014716;28;45521;-73
2021/08/11 03:44:36;;;;;;;;;0.00;0.00;;;;;26.15;42.57;101768.22;5014856;28;46971;-73
2021/08/11 03:47:03;;;;;;;;;0.00;0.00;;;;;26.23;42.78;101787.81;5015203;28;45240;-73
2021/08/11 03:49:28;;;;;;;;;0.00;0.00;;;;;26.12;42.65;101776.59;5015735;28;45406;-73
2021/08/11 03:51:53;;;;;;;;;1.00;1.00;;;;;26.22;43.07;101791.47;5014887;28;45397;-73
2021/08/11 03:54:20;;;;;;;;;0.00;0.00;;;;;26.23;42.88;101795.81;5014673;28;46297;-73
2021/08/11 03:56:45;;;;;;;;;1.00;1.00;;;;;26.22;43.11;101786.97;5014476;28;45402;-73
2021/08/11 03:59:10;;;;;;;;;1.00;1.00;;;;;26.12;42.84;101773.09;5014964;28;45500;-73
2021/08/11 04:01:36;;;;;;;;;1.00;1.00;;;;;26.18;42.60;101781.19;5015559;28;45352;-73
2021/08/11 04:04:01;;;;;;;;;1.00;1.00;;;;;26.16;42.91;101771.72;5014477;28;46460;-73
2021/08/11 04:06:26;;;;;;;;;1.00;1.00;;;;;26.21;43.03;101789.81;5014731;28;45407;-73
2021/08/11 04:08:52;;;;;;;;;2.00;1.00;;;;;26.18;42.61;101793.69;5014779;28;45533;-73
2021/08/11 04:11:17;;;;;;;;;0.00;0.00;;;;;26.06;42.69;101777.34;5014380;28;45334;-73
2021/08/11 04:13:42;;;;;;;;;1.00;1.00;;;;;26.16;42.57;101790.38;5012939;28;46909;-73
2021/08/11 04:16:08;;;;;;;;;0.75;0.75;;;;;26.20;42.49;101797.00;5015047;28;45409;-73
2021/08/11 04:18:33;;;;;;;;;2.00;0.00;;;;;26.18;42.77;101805.19;5014607;28;45271;-73
2021/08/11 04:20:59;;;;;;;;;0.00;0.00;;;;;26.17;42.51;101800.88;5014733;28;45595;-73
2021/08/11 04:23:26;;;;;;;;;0.33;0.33;;;;;26.17;42.61;101795.53;5014318;28;46564;-73
2021/08/11 04:25:51;;;;;;;;;2.00;1.00;;;;;26.17;43.02;101798.22;5014434;28;45668;-73
2021/08/11 04:28:16;;;;;;;;;0.75;0.75;;;;;26.20;42.66;101799.69;5014903;28;45418;-73
2021/08/11 04:30:41;;;;;;;;;1.00;1.00;;;;;26.18;42.63;101807.00;5014356;28;45552;-72
2021/08/11 04:33:07;;;;;;;;;0.50;0.50;;;;;26.22;42.74;101807.47;5014346;28;45553;-73
2021/08/11 04:35:32;;;;;;;;;1.00;1.00;;;;;26.17;42.58;101806.22;5014288;28;45413;-72
2021/08/11 04:37:58;;;;;;;;;0.00;0.00;;;;;26.15;42.81;101812.75;5017927;28;45432;-73
2021/08/11 04:40:24;;;;;;;;;1.00;1.00;;;;;26.15;42.66;101818.88;5018247;28;45310;-73
2021/08/11 04:42:49;;;;;;;;;0.00;0.00;;;;;26.20;42.21;101829.00;5017564;28;45492;-73
2021/08/11 04:45:15;;;;;;;;;0.75;0.75;;;;;26.21;42.78;101832.50;5017756;28;47703;-72
2021/08/11 04:47:40;;;;;;;;;2.00;1.25;;;;;26.20;42.54;101838.84;5017836;28;45387;-73
2021/08/11 04:50:06;;;;;;;;;1.00;1.00;;;;;26.21;42.67;101837.81;5001823;28;45349;-73
2021/08/11 04:52:31;;;;;;;;;1.00;1.00;;;;;26.20;42.71;101837.03;5018263;28;46505;-73
2021/08/11 04:54:56;;;;;;;;;1.00;1.00;;;;;26.16;42.96;101839.22;5017166;28;45266;-73
2021/08/11 04:57:22;;;;;;;;;0.25;0.25;;;;;26.22;42.87;101851.00;5017596;28;45414;-73
2021/08/11 04:59:47;;;;;;;;;0.25;0.25;;;;;26.21;42.88;101852.00;5017664;28;45467;-73
2021/08/11 05:02:13;;;;;;;;;1.00;1.00;;;;;26.24;42.71;101859.63;5017275;28;46170;-73
2021/08/11 05:04:39;;;;;;;;;0.33;0.33;;;;;26.14;42.10;101843.91;5017916;28;45391;-74
2021/08/11 05:07:07;;;;;;;;;0.00;0.00;;;;;26.22;42.62;101850.16;5017698;28;45259;-72
2021/08/11 05:09:33;;;;;;;;;1.75;1.75;;;;;26.21;42.75;101853.81;5017049;28;47714;-73
2021/08/11 05:11:59;;;;;;;;;1.00;1.00;;;;;26.17;42.38;101850.72;5016895;28;45588;-74
2021/08/11 05:14:24;;;;;;;;;0.75;0.75;;;;;26.20;42.66;101852.19;5017446;28;45427;-73
2021/08/11 05:16:49;;;;;;;;;1.00;1.00;;;;;26.11;42.60;101841.59;5017511;28;45707;-73
2021/08/11 05:19:15;;;;;;;;;1.00;1.00;;;;;26.20;42.76;101854.84;5017954;28;45440;-73
2021/08/11 05:21:41;;;;;;;;;1.00;1.00;;;;;26.17;42.50;101856.88;5017059;28;45416;-73
2021/08/11 05:24:06;;;;;;;;;1.25;0.75;;;;;26.05;42.51;101842.31;5016625;28;45381;-73
2021/08/11 05:26:31;;;;;;;;;0.00;0.00;;;;;26.20;42.42;101865.53;5017409;28;45447;-73
2021/08/11 05:28:57;;;;;;;;;1.00;1.00;;;;;26.03;42.50;101831.03;4999434;28;45340;-73
2021/08/11 05:31:22;;;;;;;;;1.00;1.00;;;;;26.15;42.40;101850.88;5017658;28;45385;-73
2021/08/11 05:33:47;;;;;;;;;0.00;0.00;;;;;26.12;42.62;101848.59;5017067;28;49193;-73
2021/08/11 05:36:13;;;;;;;;;0.00;0.00;;;;;26.14;42.92;101848.41;5016950;28;45311;-73
2021/08/11 05:38:38;;;;;;;;;0.00;0.00;;;;;26.12;42.27;101858.44;5015698;28;45625;-73
2021/08/11 05:41:04;;;;;;;;;0.75;0.75;;;;;26.08;42.37;101852.63;5016879;28;45373;-73
2021/08/11 05:43:29;;;;;;;;;1.25;1.25;;;;;26.14;42.57;101851.91;5017522;28;45399;-73
2021/08/11 05:45:54;;;;;;;;;1.00;1.00;;;;;26.18;42.32;101855.03;5016987;28;45581;-73
2021/08/11 05:48:20;;;;;;;;;0.75;0.75;;;;;26.18;42.69;101855.03;5016799;28;45537;-73
2021/08/11 05:50:46;;;;;;;;;1.00;1.00;;;;;26.10;42.28;101845.28;5016652;28;46200;-73
2021/08/11 05:53:11;;;;;;;;;1.00;1.00;;;;;26.14;42.49;101857.25;5016653;28;45318;-73
2021/08/11 05:55:36;;;;;;;;;1.00;1.00;;;;;26.13;42.70;101852.06;5017568;28;45473;-73
2021/08/11 05:58:02;;;;;;;;;1.00;1.00;;;;;26.18;42.58;101858.53;5016660;28;45527;-73
2021/08/11 06:00:28;;;;;;;;;0.00;0.00;;;;;26.13;42.79;101852.91;5016410;28;46538;-73
2021/08/11 06:02:56;;;;;;;;;0.00;0.00;;;;;26.19;42.69;101856.69;5016362;28;45359;-74
2021/08/11 06:05:21;;;;;;;;;1.75;1.75;;;;;26.18;42.61;101855.03;5016242;28;45342;-73
2021/08/11 06:07:47;;;;;;;;;1.00;1.00;;;;;26.17;42.54;101858.72;5016356;28;45309;-73
2021/08/11 06:10:12;;;;;;;;;1.00;1.00;;;;;26.21;42.87;101872.50;5016892;28;46343;-73
2021/08/11 06:12:38;;;;;;;;;2.00;1.00;;;;;26.17;42.88;101870.22;5016286;28;45397;-73
2021/08/11 06:15:03;;;;;;;;;1.25;0.75;;;;;26.20;42.33;101865.53;5016400;28;45328;-73
2021/08/11 06:17:29;;;;;;;;;0.00;0.00;;;;;26.14;42.49;101846.56;4998650;28;45535;-73
2021/08/11 06:19:54;;;;;;;;;1.00;1.00;;;;;26.21;42.44;101861.81;5016296;28;45262;-73
2021/08/11 06:22:19;;;;;;;;;2.00;2.00;;;;;26.19;42.32;101859.34;5016412;28;45446;-73
2021/08/11 06:24:45;;;;;;;;;3.50;0.50;;;;;26.23;42.40;101870.50;5016048;28;45239;-72
2021/08/11 06:27:10;;;;;;;;;0.25;0.25;;;;;26.17;42.51;101862.22;5016115;28;45435;-73
2021/08/11 06:29:36;;;;;;;;;0.00;0.00;;;;;26.18;42.43;101882.53;5016066;28;46942;-73
2021/08/11 06:32:02;;;;;;;;;0.00;0.00;;;;;26.15;42.32;101877.56;5016057;28;45293;-73
2021/08/11 06:34:28;;;;;;;;;1.00;1.00;;;;;26.16;42.45;101873.06;5016863;28;45365;-73
2021/08/11 06:36:53;;;;;;;;;0.75;0.75;;;;;26.21;42.63;101881.34;5015188;28;45521;-74
2021/08/11 06:39:19;;;;;;;;;1.00;1.00;;;;;26.18;42.09;101879.03;5015789;28;47071;-74
2021/08/11 06:41:45;;;;;;;;;0.75;0.75;;;;;26.18;42.45;101893.19;5015756;28;45280;-74
2021/08/11 06:44:10;;;;;;;;;0.25;0.25;;;;;26.22;42.46;101879.50;5016120;28;45441;-74
2021/08/11 06:46:35;;;;;;;;;1.00;0.00;;;;;26.22;42.02;101884.84;5016619;28;45381;-73
2021/08/11 06:49:01;;;;;;;;;1.00;1.00;;;;;26.22;42.29;101884.84;5015522;28;46227;-73
2021/08/11 06:51:26;;;;;;;;;0.00;0.00;;;;;26.27;42.18;101885.13;5015288;28;45501;-74
2021/08/11 06:53:52;;;;;;;;;1.00;1.00;;;;;26.24;42.25;101883.63;5015973;28;45450;-73
2021/08/11 06:56:18;;;;;;;;;1.00;1.00;;;;;26.23;41.97;101891.84;5015870;28;45422;-74
2021/08/11 06:58:43;;;;;;;;;1.00;1.00;;;;;26.17;42.38;101870.22;5015053;28;46658;-74
2021/08/11 07:01:08;;;;;;;;;1.00;1.00;;;;;26.20;42.29;101877.03;5016016;28;45352;-74
2021/08/11 07:03:34;;;;;;;;;1.50;1.00;;;;;26.21;42.04;101872.50;5015538;28;45402;-74
2021/08/11 07:06:00;;;;;;;;;1.00;1.00;;;;;26.20;42.29;101865.53;5015280;28;45335;-74
2021/08/11 07:08:26;;;;;;;;;1.00;1.00;;;;;26.21;42.06;101877.84;5015568;28;46279;-73
2021/08/11 07:10:51;;;;;;;;;1.00;1.00;;;;;26.23;42.52;101889.16;5015439;28;45271;-74
2021/08/11 07:13:16;;;;;;;;;1.00;1.00;;;;;26.16;42.25;101876.56;5016101;28;45410;-74
2021/08/11 07:15:42;;;;;;;;;3.25;1.00;;;;;26.24;42.23;101888.97;5015351;28;45456;-73
2021/08/11 07:18:07;;;;;;;;;2.25;1.00;;;;;26.23;42.05;101886.50;5015069;28;46527;-73
2021/08/11 07:20:33;;;;;;;;;1.00;1.00;;;;;26.14;42.05;101873.25;5015283;28;45370;-73
2021/08/11 07:22:59;;;;;;;;;2.00;2.00;;;;;26.21;42.32;101877.84;5015476;28;45475;-73
2021/08/11 07:25:28;;;;;;;;;1.00;1.00;;;;;26.18;42.01;101868.34;5016020;28;45432;-74
2021/08/11 07:27:54;;;;;;;;;1.75;0.75;;;;;26.22;42.22;101885.66;5015023;28;45673;-74
2021/08/11 07:30:20;;;;;;;;;0.25;0.25;;;;;26.23;42.30;101884.63;5014874;28;45496;-73
2021/08/11 07:32:46;;;;;;;;;1.50;1.50;;;;;26.07;42.73;101869.66;5014887;28;45464;-73
2021/08/11 07:35:12;;;;;;;;;1.00;1.00;;;;;26.21;42.22;101877.84;5014713;28;45777;-73
2021/08/11 07:37:54;;;;;;;;;2.00;1.00;;;;;26.27;42.19;101893.94;5015739;28;45366;-74
2021/08/11 07:40:22;;;;;;;;;1.50;1.50;;;;;26.22;42.06;101883.00;5015584;28;45512;-73
2021/08/11 07:42:48;;;;;;;;;2.00;2.00;;;;;26.18;42.14;101871.84;5014998;28;45484;-73
2021/08/11 07:45:15;;;;;;;;;2.00;1.00;;;;;26.24;42.22;101875.63;5014975;28;45521;-74
2021/08/11 07:47:46;;;;;;;;;4.00;2.00;;;;;26.25;42.03;101884.47;5014844;28;45597;-73
2021/08/11 07:50:11;;;;;;;;;1.00;1.00;;;;;26.25;42.36;101873.81;4999269;28;45321;-74
2021/08/11 07:52:36;;;;;;;;;1.75;1.75;;;;;26.23;42.30;101873.97;5015824;28;45512;-73
2021/08/11 07:55:02;;;;;;;;;2.00;1.00;;;;;26.25;42.24;101873.81;5015032;28;45310;-73
2021/08/11 07:57:27;;;;;;;;;2.00;2.00;;;;;26.24;42.36;101877.47;5014646;28;46777;-74
2021/08/11 07:59:53;;;;;;;;;2.00;2.00;;;;;26.26;42.07;101880.78;5014861;28;45428;-73
2021/08/11 08:02:18;;;;;;;;;1.75;1.50;;;;;26.17;42.29;101862.22;5014979;28;45395;-74
2021/08/11 08:04:43;;;;;;;;;1.25;1.25;;;;;26.24;42.03;101869.47;5014816;28;45314;-73
2021/08/11 08:07:09;;;;;;;;;2.00;2.00;;;;;26.26;42.11;101881.59;5015042;28;45452;-73
2021/08/11 08:09:34;;;;;;;;;0.67;0.67;;;;;26.20;42.45;101861.03;5014758;28;45583;-73
2021/08/11 08:12:00;;;;;;;;;1.00;1.00;;;;;26.22;42.33;101866.16;5016978;28;45394;-74
2021/08/11 08:14:25;;;;;;;;;1.75;1.75;;;;;26.24;42.45;101866.81;5018381;28;45596;-73
2021/08/11 08:16:50;;;;;;;;;1.00;1.00;;;;;26.24;42.12;101866.81;5018069;28;45468;-73
2021/08/11 08:19:16;;;;;;;;;1.00;1.00;;;;;26.23;42.00;101860.63;5018373;28;45496;-73
2021/08/11 08:21:45;;;;;;;;;1.25;1.25;;;;;26.27;42.28;101883.28;5018526;28;45361;-73
2021/08/11 08:24:11;;;;;;;;;1.75;1.75;;;;;26.29;42.10;101878.59;5018111;28;45204;-72
2021/08/11 08:26:36;;;;;;;;;1.00;1.00;;;;;26.23;42.01;101870.50;5017947;28;46153;-73
2021/08/11 08:29:03;;;;;;;;;1.25;1.25;;;;;26.25;42.32;101876.47;5018183;28;45422;-73
2021/08/11 08:31:28;;;;;;;;;3.00;1.00;;;;;26.23;42.02;101868.63;5018744;28;45503;-73
2021/08/11 08:33:54;;;;;;;;;1.00;1.00;;;;;26.18;42.29;101863.84;5017642;28;45280;-73
2021/08/11 08:36:22;;;;;;;;;2.00;2.00;;;;;26.29;42.25;101877.75;5017492;28;46292;-74
2021/08/11 08:38:48;;;;;;;;;1.25;1.25;;;;;26.28;42.23;101878.78;5017685;28;45414;-73
2021/08/11 08:41:14;;;;;;;;;0.50;0.50;;;;;26.28;42.56;101873.44;5018070;28;45850;-73
2021/08/11 08:43:40;;;;;;;;;2.00;2.00;;;;;26.28;42.12;101876.09;5018185;28;45287;-74
2021/08/11 08:46:07;;;;;;;;;2.25;2.25;;;;;26.32;42.09;101882.72;5017803;28;45313;-72
2021/08/11 08:48:33;;;;;;;;;2.75;1.25;;;;;26.24;42.27;101872.97;5017201;28;45615;-74
2021/08/11 08:50:59;;;;;;;;;2.50;2.00;;;;;26.29;42.37;101872.41;5017603;28;45501;-74
2021/08/11 08:53:25;;;;;;;;;1.00;1.00;;;;;26.13;42.39;101844.06;5017635;28;45399;-74
2021/08/11 08:55:52;;;;;;;;;3.75;2.50;;;;;26.31;42.36;101878.38;5017456;28;45813;-73
2021/08/11 08:58:18;;;;;;;;;2.00;2.00;;;;;26.28;42.45;101868.91;5017839;28;45384;-73
2021/08/11 09:00:44;;;;;;;;;1.50;1.00;;;;;26.33;42.01;101867.53;5017058;28;45236;-73
2021/08/11 09:03:10;;;;;;;;;1.50;1.50;;;;;26.31;42.01;101872.25;5017369;28;45532;-73
2021/08/11 09:05:35;;;;;;;;;2.75;2.00;;;;;26.34;42.23;101883.34;5017565;28;46514;-73
2021/08/11 09:08:01;;;;;;;;;2.00;2.00;;;;;26.35;42.04;101882.34;5017474;28;45228;-73
2021/08/11 09:10:29;;;;;;;;;1.00;1.00;;;;;26.29;41.95;101875.91;5018181;28;45235;-73
2021/08/11 09:13:06;;;;;;;;;1.25;1.25;;;;;26.34;42.17;101886.03;5017376;28;45455;-74
2021/08/11 09:16:04;;;;;;;;;1.50;1.50;;;;;26.33;41.96;101886.22;5016797;28;45455;-74
2021/08/11 09:18:30;;;;;;;;;1.00;1.00;;;;;26.16;42.46;101855.22;5016399;28;45695;-74
2021/08/11 09:20:58;;;;;;;;;2.75;2.75;;;;;26.35;42.27;101881.53;4999637;28;45553;-73
2021/08/11 09:23:46;;;;;;;;;2.00;2.00;;;;;26.32;42.56;101874.72;5016737;28;45608;-73
2021/08/11 09:26:14;;;;;;;;;1.00;1.00;;;;;26.33;41.83;101881.72;5001633;28;46553;-74
2021/08/11 09:28:41;;;;;;;;;2.00;2.00;;;;;26.23;42.12;101865.97;5017298;28;45413;-73
2021/08/11 09:31:29;;;;;;;;;3.00;3.00;;;;;26.27;42.32;101867.28;5016626;28;45251;-73
2021/08/11 09:33:57;;;;;;;;;2.25;2.25;;;;;26.24;42.11;101870.31;5016945;28;45435;-73
2021/08/11 09:36:23;;;;;;;;;2.00;2.00;;;;;26.32;42.46;101885.38;5016057;28;45426;-73
2021/08/11 09:39:03;;;;;;;;;1.75;1.75;;;;;26.24;42.44;101864.13;5016568;28;45347;-73
2021/08/11 09:41:29;;;;;;;;;2.25;2.25;;;;;26.26;42.46;101860.28;4999204;28;45290;-73
2021/08/11 09:44:09;;;;;;;;;1.75;1.75;;;;;26.35;42.01;101879.69;5016885;28;45278;-73
2021/08/11 09:46:35;;;;;;;;;2.25;2.00;;;;;26.31;42.53;101867.72;4999393;28;46138;-73
2021/08/11 09:49:01;;;;;;;;;1.75;1.75;;;;;26.33;42.23;101865.72;5016669;28;45605;-73
2021/08/11 09:51:27;;;;;;;;;2.00;2.00;;;;;26.31;42.08;101867.72;5016642;28;45247;-73
2021/08/11 09:53:52;;;;;;;;;1.50;1.50;;;;;26.25;42.38;101855.97;5016847;28;45531;-73
2021/08/11 09:56:18;;;;;;;;;2.50;2.50;;;;;26.32;42.32;101864.03;5016524;28;46253;-73
2021/08/11 09:59:00;;;;;;;;;2.00;2.00;;;;;26.36;42.18;101867.97;4998572;28;45372;-73
2021/08/11 10:01:27;;;;;;;;;4.75;3.75;;;;;26.36;42.26;101862.66;5017213;28;45402;-73
2021/08/11 10:04:01;;;;;;;;;2.00;2.00;;;;;26.35;42.33;101855.69;5016372;28;45493;-73
2021/08/11 10:06:28;;;;;;;;;2.00;2.00;;;;;26.38;42.15;101868.66;5016298;28;46862;-73
2021/08/11 10:08:55;;;;;;;;;2.00;1.75;;;;;26.34;41.94;101861.19;5016318;28;45309;-73
2021/08/11 10:11:37;;;;;;;;;2.25;2.25;;;;;26.37;42.24;101871.47;5016530;28;45354;-72
2021/08/11 10:14:05;;;;;;;;;1.25;1.25;;;;;26.38;42.25;101868.66;5016053;28;45565;-73
2021/08/11 10:16:33;;;;;;;;;2.00;2.00;;;;;26.39;42.20;101869.44;5016846;28;47083;-72
2021/08/11 10:19:00;;;;;;;;;2.25;2.25;;;;;26.33;42.47;101851.53;5016336;28;45475;-73
2021/08/11 10:21:27;;;;;;;;;3.50;2.00;;;;;26.32;42.58;101850.72;5016423;28;45352;-73
2021/08/11 10:23:53;;;;;;;;;1.75;1.75;;;;;26.41;41.67;101872.78;5016066;28;45589;-73
2021/08/11 10:26:19;;;;;;;;;3.00;3.00;;;;;26.39;42.18;101864.13;5016084;28;46651;-73
2021/08/11 10:28:45;;;;;;;;;4.75;3.00;;;;;26.37;42.17;101860.81;4998008;28;45430;-73
2021/08/11 10:31:11;;;;;;;;;4.25;3.25;;;;;26.40;42.18;101852.44;5015686;28;45270;-73
2021/08/11 10:33:37;;;;;;;;;2.25;2.00;;;;;26.31;42.24;101845.56;5015069;28;45350;-73
2021/08/11 10:36:04;;;;;;;;;3.25;2.00;;;;;26.39;42.21;101859.63;5015823;28;46724;-73
2021/08/11 10:38:33;;;;;;;;;2.00;2.00;;;;;26.37;42.01;101853.66;5015900;28;45389;-73
2021/08/11 10:40:59;;;;;;;;;3.00;2.00;;;;;26.43;42.31;101861.91;5016017;28;45317;-73
2021/08/11 10:43:33;;;;;;;;;1.50;1.50;;;;;26.43;42.60;101859.25;5016054;28;45568;-73
2021/08/11 10:46:04;;;;;;;;;2.75;2.75;;;;;26.41;42.29;101857.59;5015804;28;45496;-73
2021/08/11 10:48:29;;;;;;;;;4.00;3.00;;;;;26.27;42.18;101831.75;5015677;28;45326;-73
2021/08/11 10:50:55;;;;;;;;;2.00;2.00;;;;;26.32;41.80;101833.88;5015763;28;45812;-73
2021/08/11 10:53:21;;;;;;;;;2.50;2.50;;;;;26.41;42.24;101846.91;5015758;28;45550;-73
2021/08/11 10:55:49;;;;;;;;;3.00;3.00;;;;;26.41;42.61;101846.91;5015921;28;45541;-73
2021/08/11 10:58:32;;;;;;;;;2.50;2.50;;;;;26.41;41.93;101838.91;5015860;28;45536;-73
2021/08/11 11:00:58;;;;;;;;;2.25;2.25;;;;;26.38;41.83;101839.31;5015723;28;46230;-73
2021/08/11 11:03:48;;;;;;;;;3.00;2.00;;;;;26.41;42.18;101840.78;5015380;28;45430;-73
2021/08/11 11:06:14;;;;;;;;;2.00;1.50;;;;;26.37;42.21;101832.31;5015339;28;45483;-73
2021/08/11 11:08:39;;;;;;;;;2.00;2.00;;;;;26.41;42.18;101835.44;5015403;28;45413;-73
2021/08/11 11:11:36;;;;;;;;;3.75;2.25;;;;;26.41;42.03;101833.56;5015731;28;45382;-73
2021/08/11 11:14:02;;;;;;;;;2.00;2.00;;;;;26.40;42.30;101837.28;4986016;28;45332;-73
2021/08/11 11:17:05;;;;;;;;;4.75;3.50;;;;;26.41;42.11;101833.56;5016015;28;46547;-74
2021/08/11 11:19:31;;;;;;;;;3.00;3.00;;;;;26.33;42.28;101819.53;5015349;28;45452;-73
2021/08/11 11:21:57;;;;;;;;;3.75;2.75;;;;;26.37;42.29;101826.97;5015448;28;45559;-73
2021/08/11 11:24:50;;;;;;;;;3.25;3.00;;;;;26.40;42.14;101826.59;5015391;28;45616;-73
2021/08/11 11:27:42;;;;;;;;;2.25;2.25;;;;;26.40;42.17;101821.25;5014670;28;46784;-73